Cisco Butte, California Weather observations

Data are for observation ending at time listed.
 Day   Time    Ave.   Ave.  Ave.  Vector   Max.   Stn.    Total    Solar   Ave.   Snow 
  of    of     Air    Rel.  Wind   Wind    Wind   Baro.  Precip.   Rad.    Soil   Depth
Year   Day     Temp.  Hum.  Speed  Dir.    Gust   Pres.                    Temp.       
2016   (PST)    F      %     mph   deg.    mph     mb.     in.     W/m2     F      in. 
---------------------------------------------------------------------------------------  
 241   13:50   73.3    17   11.3   264     21.1   830.0    0.00     503    -14710.0   80.3
 241   14:00   73.7    17   11.8   267     20.4   830.0    0.00     492    -14710.0   80.3
 241   14:10   73.1    18   12.1   273     21.8   830.0    0.00     483    -14710.0   80.2
 241   14:20   73.5    18   11.2   276     18.9   829.0    0.00     470    -14710.0   80.4
 241   14:30   73.3    18   11.9   265     20.2   829.0    0.00     457    -14710.0   80.3
 241   14:40   73.8    19   12.5   275     19.7   829.0    0.00     442    -14710.0   80.3
 241   14:50   74.0    18   11.0   270     19.6   829.0    0.00     424    -14710.0   80.2
 241   15:00   73.1    19   12.0   278     20.0   829.0    0.00     398    -14710.0   80.3
 241   15:10   73.1    19   11.2   277     17.0   829.0    0.00     391    -14710.0   80.2
 241   15:20   73.7    18   11.1   267     17.6   829.0    0.00     362    -14710.0   72.2
 241   15:30   72.6    18   11.9   275     18.6   829.0    0.00     353    -14710.0   80.2
 241   15:40   72.9    18    9.4   261     16.1   829.0    0.00     330    -14710.0   80.2
 241   15:50   73.8    18    9.5   270     14.8   829.0    0.00     313    -14710.0   80.1
 241   16:00   73.5    19   10.8   283     16.0   829.0    0.00     292    -14710.0   80.2
 241   16:10   72.8    20   10.2   276     18.2   829.0    0.00     272    -14710.0   72.1
 241   16:20   73.5    18    8.8   254     16.1   829.0    0.00     171    -14710.0   80.2
 241   16:30   73.0    18    8.7   271     14.0   829.0    0.00      25    -14710.0   80.3
 241   16:40   72.3    19    9.7   279     14.3   829.0    0.00     188    -14710.0   80.2
 241   16:50   72.2    19    8.4   271     12.9   829.0    0.00     187    -14710.0   80.2
 241   17:00   72.2    20    8.4   268     12.4   829.0    0.00     167    -14710.0   80.2
 241   17:10   71.5    21    8.0   280     13.7   829.0    0.00     146    -14710.0   79.9
 241   17:20   70.7    22    9.3   280     13.8   829.0    0.00     124    -14710.0   80.3
 241   17:30   70.7    22    7.1   273     10.6   829.0    0.00     104    -14710.0   80.3
 241   17:40   70.3    24    8.1   280     12.1   829.0    0.00      85    -14710.0   80.1
 241   17:50   69.4    24    8.3   276     12.5   829.0    0.00      68    -14710.0   80.1
 241   18:00   69.2    24    7.1   280     11.0   829.0    0.00      36    -14710.0   80.1
 241   18:10   68.6    25    7.2   277     10.7   829.0    0.00      12    -14710.0   80.0
 241   18:20   67.7    26    7.4   280      9.5   829.0    0.00      10    -14710.0   80.0
 241   18:30   66.5    28    6.4   280      9.2   829.0    0.00       7    -14710.0   80.1
 241   18:40   65.3    29    5.1   284      7.8   830.0    0.00       4    -14710.0   80.2
 241   18:50   64.2    31    4.2   274      6.0   830.0    0.00       1    -14710.0   80.3
 241   19:00   63.2    32    3.3   266      6.1   830.0    0.00       0    -14710.0   80.3
 241   19:10   62.5    33    1.5   259      3.4   830.0    0.00       0    -14710.0   80.4
 241   19:20   62.4    33    0.0     0      0.0   830.0    0.00       0    -14710.0   80.5
 241   19:30   63.0    32    1.5   102      2.7   830.0    0.00       0    -14710.0   80.4
 241   19:40   63.0    32    3.0    87      4.5   830.0    0.00       0    -14710.0   80.4
 241   19:50   62.4    33    3.1    87      4.2   830.0    0.00       0    -14710.0   80.3
 241   20:00   61.4    34    5.0    99      7.0   830.0    0.00       0    -14710.0   80.4
 241   20:10   61.0    34    6.5    99      8.0   830.0    0.00       0    -14710.0   80.3
 241   20:20   60.8    34    7.1   105      9.2   830.0    0.00       0    -14710.0   80.3
 241   20:30   59.8    36    6.9   109      9.5   830.0    0.00       0    -14710.0   64.0
 241   20:40   59.3    37    7.2   102      9.4   830.0    0.00       0    -14710.0   72.1
 241   20:50   58.8    38    7.2   104      9.3   830.0    0.00       0    -14710.0   64.1
 241   21:00   58.1    39    7.2   106      9.6   830.0    0.00       0    -14710.0   63.6
 241   21:10   57.7    39    7.0   108     10.2   830.0    0.00       0    -14710.0   72.6
 241   21:20   58.2    38    7.4   111     10.3   830.0    0.00       0    -14710.0   80.2
 241   21:30   57.9    38    7.6   110     11.3   830.0    0.00       0    -14710.0   79.8
 241   21:40   57.3    39    7.6   106     10.6   830.0    0.00       0    -14710.0   56.5
 241   21:50   56.8    40    8.3   106     11.1   830.0    0.00       0    -14710.0   64.1
 241   22:00   56.4    40    7.1   105     10.2   830.0    0.00       0    -14710.0   80.3
 241   22:10   56.2    40    6.6    97     10.2   830.0    0.00       0    -14710.0   80.3
 241   22:20   55.9    40    6.9    95     10.8   830.0    0.00       0    -14710.0   80.3
 241   22:30   56.0    40    6.2    94      9.1   831.0    0.00       0    -14710.0   80.3
 241   22:40   56.1    40    6.8    95      9.4   831.0    0.00       0    -14710.0   72.2
 241   22:50   56.2    39    7.2    91     10.2   831.0    0.00       0    -14710.0   80.3
 241   23:00   56.1    39    6.3    96      9.3   831.0    0.00       0    -14710.0   80.3
 241   23:10   56.4    38    5.8    92      8.3   831.0    0.00       0    -14710.0   80.4
 241   23:20   56.4    37    5.3    84      8.1   831.0    0.00       0    -14710.0   80.3
 241   23:30   56.6    36    5.1    84      7.3   831.0    0.00       0    -14710.0   80.3
 241   23:40   56.3    35    5.1    86      6.4   831.0    0.00       0    -14710.0   80.3
 241   23:50   55.8    35    5.2    88      7.7   831.0    0.00       0    -14710.0   80.3
 242    0:00   56.0    34    4.4    82      6.7   831.0    0.00       0    -14710.0   80.3
 242    0:10   56.5    33    4.9    88      8.3   831.0    0.00       0    -14710.0   72.2
 242    0:20   56.0    33    5.7    88      9.1   831.0    0.00       0    -14710.0   80.3
 242    0:30   54.8    34    6.0    91      9.1   831.0    0.00       0    -14710.0   80.3
 242    0:40   54.9    34    6.1    86      9.1   831.0    0.00       0    -14710.0   72.3
 242    0:50   55.6    32    6.3    88      9.3   830.0    0.00       0    -14710.0   80.3
 242    1:00   55.2    32    6.2    88      8.2   830.0    0.00       0    -14710.0   80.3
 242    1:10   54.6    33    6.3    88      9.7   831.0    0.00       0    -14710.0   80.4
 242    1:20   54.4    33    5.8    87      8.4   831.0    0.00       0    -14710.0   80.4
 242    1:30   55.1    31    5.1    89      7.6   831.0    0.00       0    -14710.0   80.3
 242    1:40   55.8    30    5.5    84      7.8   831.0    0.00       0    -14710.0   80.3
 242    1:50   55.5    30    5.3    93      8.0   831.0    0.00       0    -14710.0   80.3
 242    2:00   54.9    31    6.2    93      8.8   831.0    0.00       0    -14710.0   80.3
 242    2:10   54.2    31    6.2    90      9.6   831.0    0.00       0    -14710.0   80.4
 242    2:20   54.7    30    6.9    94      9.9   831.0    0.00       0    -14710.0   72.3
 242    2:30   54.4    30    7.0    97     10.1   831.0    0.00       0    -14710.0   80.3
 242    2:40   53.4    32    7.8   103     11.9   830.0    0.00       0    -14710.0   72.2
 242    2:50   54.0    31    8.0    98     12.0   830.0    0.00       0    -14710.0   72.3
 242    3:00   56.5    27    5.6    95      8.2   830.0    0.00       0    -14710.0   80.3
 242    3:10   57.0    26    4.5    86      6.4   831.0    0.00       0    -14710.0   80.4
 242    3:20   56.2    28    5.4    85      7.1   830.0    0.00       0    -14710.0   80.3
 242    3:30   54.3    30    5.9    88      8.9   830.0    0.00       0    -14710.0   80.4
 242    3:40   54.7    29    5.1    82      7.6   830.0    0.00       0    -14710.0   80.5
 242    3:50   54.9    29    5.3    91      7.3   830.0    0.00       0    -14710.0   80.4
 242    4:00   53.9    30    6.5    94      9.0   830.0    0.00       0    -14710.0   80.3
 242    4:10   53.8    30    7.1    97      9.6   830.0    0.00       0    -14710.0   72.4
 242    4:20   54.0    29    8.2   103     12.8   830.0    0.00       0    -14710.0   64.2
 242    4:30   53.6    30    8.7   104     12.3   830.0    0.00       0    -14710.0   64.3
 242    4:40   53.6    29    7.9   103     12.3   830.0    0.00       0    -14710.0   80.4
 242    4:50   53.7    29    8.2   104     11.6   830.0    0.00       0    -14710.0   71.9
 242    5:00   53.7    29    8.3    99     11.7   830.0    0.00       0    -14710.0   72.7
 242    5:10   55.3    27    8.3   103     10.5   830.0    0.00       0    -14710.0   80.4
 242    5:20   55.1    27    8.7   104     12.1   830.0    0.00       0    -14710.0   72.3
 242    5:30   53.9    28    8.5   104     11.7   830.0    0.00       4    -14710.0   72.3
 242    5:40   53.5    28    7.9   105     11.5   830.0    0.00       6    -14710.0   80.4
 242    5:50   53.9    28    7.9    99     10.4   830.0    0.00      21    -14710.0   80.4
 242    6:00   55.0    27    8.2   101     13.2   830.0    0.00      34    -14710.0   80.3
 242    6:10   55.3    26    8.7    97     12.1   830.0    0.00      30    -14710.0   80.1
 242    6:20   56.6    25    8.7   100     12.1   830.0    0.00      47    -14710.0   80.3
 242    6:30   56.6    25    8.4   106     13.1   830.0    0.00      48    -14710.0   80.3
 242    6:40   56.1    25    6.5   101     12.7   830.0    0.00      26    -14710.0   80.3
 242    6:50   58.4    23    4.8    97      7.3   830.0    0.00     103    -14710.0   80.4
 242    7:00   61.0    21    3.9    99      5.8   831.0    0.00     141    -14710.0  102.0
 242    7:10   62.0    21    4.2    94      6.3   831.0    0.00     155    -14710.0   80.1
 242    7:20   62.7    20    3.8    96      5.3   831.0    0.00     174    -14710.0   80.1
 242    7:30   64.7    18    3.0    92      5.3   831.0    0.00     221    -14710.0   79.9
 242    7:40   65.7    18    4.4    95      5.9   831.0    0.00     217    -14710.0   80.0
 242    7:50   66.2    17    4.4   110      6.0   830.0    0.00     224    -14710.0   80.1
 242    8:00   66.3    17    4.1    92      7.0   830.0    0.00     193    -14710.0   80.1
 242    8:10   67.2    17    3.2   142      7.2   830.0    0.00     206    -14710.0   80.2
 242    8:20   67.9    15    4.4   158      8.3   830.0    0.00     148    -14710.0   80.3
 242    8:30   67.7    15    3.6   154      6.9   830.0    0.00     224    -14710.0   80.3
 242    8:40   68.9    15    1.8   177      4.8   830.0    0.00     168    -14710.0   80.3
 242    8:50   68.5    14    3.4   182      6.9   830.0    0.00     181    -14710.0   80.3
 242    9:00   69.5    14    2.2   189      6.6   830.0    0.00     301    -14710.0   80.2
 242    9:10   71.5    13    3.4   198      9.7   830.0    0.00     447    -14710.0   80.0
 242    9:20   71.6    13    4.7   201     11.1   830.0    0.00     288    -14710.0   80.1
 242    9:30   71.1    13    4.9   194      9.0   830.0    0.00     394    -14710.0   80.2
 242    9:40   71.3    12    5.1   171     12.6   830.0    0.00     450    -14710.0   80.1
 242    9:50   72.4    12    3.7   171     10.1   830.0    0.00     469    -14710.0   80.0
 242   10:00   74.1    12    4.2   214      9.2   830.0    0.00     482    -14710.0   80.0
 242   10:10   73.4    12    4.0   217     12.3   830.0    0.00     356    -14710.0   72.0
 242   10:20   74.0    12    8.7   261     18.8   830.0    0.00     518    -14710.0   80.1
 242   10:30   73.5    12   10.1   260     18.4   830.0    0.00     523    -14710.0   80.2
 242   10:40   73.6    12    6.3   247     14.0   830.0    0.00     524    -14710.0   80.2
 242   10:50   75.3    12    8.3   264     18.1   830.0    0.00     542    -14710.0   80.2
 242   11:00   74.9    12    8.1   255     17.5   830.0    0.00     352    -14710.0   72.1
 242   11:10   73.8    12   10.8   263     18.9   830.0    0.00     517    -14710.0   80.3
 242   11:20   74.0    12    7.2   248     14.9   830.0    0.00     551    -14710.0   80.3
 242   11:30   76.2    11    8.8   258     18.3   830.0    0.00     564    -14710.0   80.2
 242   11:40   74.5    12   11.8   264     19.7   830.0    0.00     542    -14710.0   80.2
 242   11:50   74.7    11    9.9   264     20.5   830.0    0.00     567    -14710.0   80.3
 242   12:00   75.3    11   10.5   266     19.0   830.0    0.00     558    -14710.0   80.3
 242   12:10   75.4    11    5.9   237     14.2   830.0    0.00     558    -14710.0   80.2
 242   12:20   74.6    12   10.0   255     22.3   830.0    0.00     555    -14710.0   80.3
 242   12:30   75.6    12    7.3   250     17.9   830.0    0.00     554    -14710.0   80.3
 242   12:40   76.7    12    8.8   264     20.0   830.0    0.00     541    -14710.0   80.2
 242   12:50   76.1    13   13.7   274     23.8   830.0    0.00     547    -14710.0   80.2
 242   13:00   75.1    13   10.2   268     22.6   830.0    0.00     540    -14710.0   80.2
 242   13:10   76.1    13   12.2   274     21.9   830.0    0.00     533    -14710.0   72.1
 242   13:20   76.4    14   10.2   267     20.1   830.0    0.00     525    -14710.0   80.1
 242   13:30   76.4    14   11.8   258     21.0   830.0    0.00     517    -14710.0   80.2
 242   13:40   75.9    14   11.1   272     17.7   829.0    0.00     510    -14710.0   80.2

Return to Cisco Butte graphs page.


Western Regional Climate Center,wrcc@dri.edu